Time;durP1;ratioP1;P1;durP2;ratioP2;P2;SDS_P1;SDS_P2;PMS_P1;PMS_P2;Temp;Humidity;BMP_temperature;BMP_pressure;BME280_temperature;BME280_humidity;BME280_pressure;Samples;Min_cycle;Max_cycle;Signal;HPM_P1;HPM_P2
2022/01/02 00:01:50;;;;;;;1.55;1.45;;;-10.60;99.90;;;;;;4935252;29;20031;-69
2022/01/02 00:04:22;;;;;;;1.60;1.50;;;-10.60;99.90;;;;;;4935223;29;20075;-69
2022/01/02 00:06:50;;;;;;;2.65;1.50;;;-10.50;99.90;;;;;;4935261;29;20107;-69
2022/01/02 00:09:33;;;;;;;2.85;1.52;;;-10.50;99.90;;;;;;4934861;29;20016;-69
2022/01/02 00:12:09;;;;;;;2.55;1.73;;;-10.50;99.90;;;;;;4935069;29;20566;-69
2022/01/02 00:14:37;;;;;;;2.20;1.60;;;-10.40;99.90;;;;;;4935240;29;20114;-69
2022/01/02 00:17:06;;;;;;;1.55;1.45;;;-10.40;99.90;;;;;;4934775;29;20028;-68
2022/01/02 00:19:34;;;;;;;1.70;1.60;;;-10.40;99.90;;;;;;4935066;29;20036;-68
2022/01/02 00:22:03;;;;;;;2.17;1.65;;;-10.40;99.90;;;;;;4934762;29;20055;-69
2022/01/02 00:24:30;;;;;;;1.63;1.45;;;-10.30;99.90;;;;;;4934763;29;20030;-68
2022/01/02 00:26:58;;;;;;;1.50;1.40;;;-10.20;99.90;;;;;;4934704;29;20035;-68
2022/01/02 00:29:25;;;;;;;1.30;1.20;;;-10.20;99.90;;;;;;4934942;29;20112;-69
2022/01/02 00:31:55;;;;;;;3.58;1.60;;;-10.00;99.90;;;;;;4934776;29;20028;-70
2022/01/02 00:34:21;;;;;;;7.40;1.77;;;-8.50;99.90;;;;;;4934635;29;20071;-70
2022/01/02 00:36:47;;;;;;;3.20;2.08;;;-8.50;99.90;;;;;;4934309;29;20763;-70
2022/01/02 00:39:13;;;;;;;2.50;2.03;;;-8.90;99.90;;;;;;4933239;29;20088;-70
2022/01/02 00:41:56;;;;;;;1.80;1.70;;;-9.30;99.90;;;;;;4934605;29;20419;-70
2022/01/02 00:44:28;;;;;;;3.40;1.70;;;-9.50;99.90;;;;;;4934463;29;20115;-70
2022/01/02 00:47:11;;;;;;;3.03;1.58;;;-9.70;99.90;;;;;;4934669;29;20111;-70
2022/01/02 00:49:45;;;;;;;1.70;1.55;;;-9.80;99.90;;;;;;4934653;29;20506;-70
2022/01/02 00:52:17;;;;;;;1.48;1.38;;;-9.80;99.90;;;;;;4934453;29;20039;-70
2022/01/02 00:54:45;;;;;;;1.90;1.30;;;-9.70;99.90;;;;;;4934727;29;20534;-71
2022/01/02 00:57:17;;;;;;;1.38;1.25;;;-9.70;99.90;;;;;;4934312;29;20027;-71
2022/01/02 00:59:45;;;;;;;1.85;1.50;;;-9.80;99.90;;;;;;4934401;29;20035;-71
2022/01/02 01:02:16;;;;;;;1.77;1.67;;;-9.80;99.90;;;;;;4934289;29;20043;-71
2022/01/02 01:04:43;;;;;;;1.85;1.63;;;-9.80;99.90;;;;;;4933234;29;20059;-71
2022/01/02 01:07:09;;;;;;;1.80;1.67;;;-9.80;99.90;;;;;;4934177;29;20028;-71
2022/01/02 01:09:35;;;;;;;1.48;1.38;;;-9.80;99.90;;;;;;4937786;29;20023;-73
2022/01/02 01:12:04;;;;;;;1.50;1.40;;;-10.00;99.90;;;;;;4937788;29;20523;-72
2022/01/02 01:14:30;;;;;;;2.70;1.52;;;-10.00;99.90;;;;;;4937647;29;20039;-72
2022/01/02 01:16:57;;;;;;;1.60;1.50;;;-10.00;99.90;;;;;;4938091;29;20062;-74
2022/01/02 01:19:24;;;;;;;1.88;1.40;;;-10.00;99.90;;;;;;4937653;29;20038;-74
2022/01/02 01:21:51;;;;;;;2.22;1.42;;;-9.90;99.90;;;;;;4937739;29;20031;-74
2022/01/02 01:24:17;;;;;;;1.50;1.40;;;-9.90;99.90;;;;;;4937671;29;20035;-72
2022/01/02 01:26:46;;;;;;;1.50;1.40;;;-9.90;99.90;;;;;;4936451;29;20086;-69
2022/01/02 01:29:11;;;;;;;2.15;1.48;;;-9.80;99.90;;;;;;4937537;29;20058;-70
2022/01/02 01:31:37;;;;;;;7.03;1.60;;;-9.70;99.90;;;;;;4937605;29;20059;-71
2022/01/02 01:34:03;;;;;;;2.15;1.30;;;-9.70;99.90;;;;;;4937562;29;20027;-71
2022/01/02 01:36:28;;;;;;;1.50;1.40;;;-9.70;99.90;;;;;;4937176;29;20031;-71
2022/01/02 01:38:54;;;;;;;2.70;1.83;;;-9.60;99.90;;;;;;4937333;29;20107;-71
2022/01/02 01:41:28;;;;;;;2.92;1.63;;;-9.60;99.90;;;;;;4937166;29;20411;-71
2022/01/02 01:44:08;;;;;;;2.25;1.40;;;-9.60;99.90;;;;;;4937602;29;20075;-70
2022/01/02 01:46:36;;;;;;;3.70;1.50;;;-9.60;99.90;;;;;;4937795;29;20052;-71
2022/01/02 01:49:12;;;;;;;1.60;1.50;;;-9.60;99.90;;;;;;4937471;29;20086;-71
2022/01/02 01:51:38;;;;;;;1.55;1.45;;;-9.60;99.90;;;;;;4937096;29;20036;-71
2022/01/02 01:54:03;;;;;;;2.47;1.45;;;-9.60;99.90;;;;;;4937412;29;20140;-71
2022/01/02 01:56:30;;;;;;;2.65;1.48;;;-9.70;99.90;;;;;;4936968;29;20039;-72
2022/01/02 01:58:56;;;;;;;1.73;1.50;;;-9.70;99.90;;;;;;4937067;29;20023;-71
2022/01/02 02:01:22;;;;;;;1.50;1.40;;;-9.70;99.90;;;;;;4936906;29;20043;-71
2022/01/02 02:03:48;;;;;;;1.83;1.70;;;-9.70;99.90;;;;;;4936920;29;20063;-70
2022/01/02 02:06:14;;;;;;;1.60;1.50;;;-9.70;99.90;;;;;;4937075;29;20032;-71
2022/01/02 02:08:40;;;;;;;5.88;1.67;;;-9.70;99.90;;;;;;4936811;29;20091;-70
2022/01/02 02:11:05;;;;;;;1.48;1.30;;;-9.70;99.90;;;;;;4936935;29;20030;-70
2022/01/02 02:13:33;;;;;;;1.70;1.60;;;-9.60;99.90;;;;;;4936643;29;20024;-71
2022/01/02 02:16:00;;;;;;;1.52;1.42;;;-9.60;99.90;;;;;;4936688;29;20115;-72
2022/01/02 02:18:26;;;;;;;1.63;1.50;;;-9.50;99.90;;;;;;4936780;29;20114;-71
2022/01/02 02:20:51;;;;;;;1.60;1.50;;;-9.60;99.90;;;;;;4934669;29;20114;-71
2022/01/02 02:23:17;;;;;;;5.07;1.70;;;-9.60;99.90;;;;;;4936748;29;20032;-71
2022/01/02 02:54:48;;;;;;;1.52;1.42;;;-9.70;99.90;;;;;;4935520;29;20102;-69
2022/01/02 02:57:14;;;;;;;1.85;1.40;;;-9.60;99.90;;;;;;4936107;29;20026;-70
2022/01/02 02:59:40;;;;;;;1.88;1.50;;;-9.60;99.90;;;;;;4936069;29;20036;-70
2022/01/02 03:02:06;;;;;;;3.53;1.88;;;-9.50;99.90;;;;;;4935882;29;20551;-70
2022/01/02 03:38:11;;;;;;;1.70;1.60;;;-9.20;99.90;;;;;;5160330;23;20055;-71
2022/01/02 03:40:37;;;;;;;1.60;1.50;;;-9.20;99.90;;;;;;4954369;28;20039;-70
2022/01/02 03:43:04;;;;;;;1.92;1.60;;;-9.20;99.90;;;;;;4952913;28;20398;-70
2022/01/02 03:45:30;;;;;;;2.88;1.42;;;-9.10;99.90;;;;;;4954419;28;20032;-69
2022/01/02 03:47:56;;;;;;;3.03;1.48;;;-9.10;99.90;;;;;;4954177;28;20173;-70
2022/01/02 03:50:21;;;;;;;1.33;1.23;;;-9.20;99.90;;;;;;4954292;28;20126;-70
2022/01/02 03:52:47;;;;;;;1.63;1.52;;;-9.10;99.90;;;;;;4954179;28;20023;-70
2022/01/02 03:55:13;;;;;;;3.20;1.90;;;-9.10;99.90;;;;;;4954230;28;20099;-70
2022/01/02 03:57:39;;;;;;;2.53;1.67;;;-9.10;99.90;;;;;;4954136;28;20115;-70
2022/01/02 04:00:08;;;;;;;3.97;1.75;;;-9.10;99.90;;;;;;4953983;28;20035;-69
2022/01/02 04:02:37;;;;;;;1.70;1.60;;;-9.00;99.90;;;;;;4954299;28;20035;-69
2022/01/02 04:05:12;;;;;;;2.38;1.65;;;-9.00;99.90;;;;;;4954019;28;20441;-70
2022/01/02 04:07:38;;;;;;;2.83;1.67;;;-9.00;99.90;;;;;;4954343;28;20027;-70
2022/01/02 04:10:09;;;;;;;2.63;1.90;;;-9.00;99.90;;;;;;4953937;28;20028;-70
2022/01/02 04:12:35;;;;;;;2.08;1.30;;;-9.00;99.90;;;;;;4954031;29;20034;-70
2022/01/02 04:15:03;;;;;;;1.70;1.52;;;-9.00;99.90;;;;;;4953876;28;20131;-70
2022/01/02 04:17:29;;;;;;;1.70;1.60;;;-9.00;99.90;;;;;;4953853;28;20027;-70
2022/01/02 04:19:54;;;;;;;1.98;1.80;;;-9.00;99.90;;;;;;4954114;28;20042;-70
2022/01/02 04:22:20;;;;;;;1.98;1.70;;;-8.90;99.90;;;;;;4954244;28;20043;-70
2022/01/02 04:24:46;;;;;;;2.72;1.83;;;-8.90;99.90;;;;;;4954109;28;20395;-70
2022/01/02 04:27:12;;;;;;;2.35;1.70;;;-8.90;99.90;;;;;;4952607;29;20105;-70
2022/01/02 04:29:37;;;;;;;1.60;1.50;;;-8.80;99.90;;;;;;4954027;28;20034;-70
2022/01/02 04:32:03;;;;;;;1.88;1.75;;;-8.80;99.90;;;;;;4953874;28;20395;-70
2022/01/02 04:34:29;;;;;;;1.75;1.50;;;-8.80;99.90;;;;;;4953916;28;20102;-70
2022/01/02 04:36:55;;;;;;;1.67;1.58;;;-8.80;99.90;;;;;;4953675;28;20130;-70
2022/01/02 04:39:21;;;;;;;2.47;1.80;;;-8.80;99.90;;;;;;4953761;28;20035;-70
2022/01/02 04:41:46;;;;;;;4.13;1.50;;;-8.80;99.90;;;;;;4953731;28;20027;-71
2022/01/02 04:44:12;;;;;;;4.43;1.63;;;-8.80;99.90;;;;;;4956581;28;20040;-70
2022/01/02 04:46:38;;;;;;;2.75;1.80;;;-8.80;99.90;;;;;;4957486;28;20055;-71
2022/01/02 04:49:03;;;;;;;3.78;1.70;;;-8.70;99.90;;;;;;4957390;28;20029;-70
2022/01/02 04:51:29;;;;;;;2.17;1.67;;;-8.70;99.90;;;;;;4957773;28;20031;-71
2022/01/02 04:53:55;;;;;;;2.47;1.92;;;-8.60;99.90;;;;;;4957516;28;20027;-70
2022/01/02 04:56:20;;;;;;;3.20;1.73;;;-8.60;99.90;;;;;;4957374;28;20114;-70
2022/01/02 04:58:46;;;;;;;4.13;1.70;;;-8.60;99.90;;;;;;4957535;28;20059;-72
2022/01/02 05:01:14;;;;;;;1.90;1.70;;;-8.50;99.90;;;;;;4957108;28;20062;-71
2022/01/02 05:03:40;;;;;;;2.72;2.03;;;-8.50;99.90;;;;;;4957487;28;20078;-72
2022/01/02 05:06:07;;;;;;;2.50;1.90;;;-8.50;99.90;;;;;;4957156;28;20062;-72
2022/01/02 05:08:33;;;;;;;1.95;1.73;;;-8.50;99.90;;;;;;4957332;28;20039;-72
2022/01/02 05:10:59;;;;;;;2.50;1.88;;;-8.40;99.90;;;;;;4956981;28;20031;-72
2022/01/02 05:13:25;;;;;;;2.30;1.70;;;-8.40;99.90;;;;;;4957285;28;20024;-71
2022/01/02 05:15:51;;;;;;;2.65;1.60;;;-8.40;99.90;;;;;;4957073;28;20438;-71
2022/01/02 05:18:16;;;;;;;2.38;1.60;;;-8.40;99.90;;;;;;4956824;28;20078;-72
2022/01/02 05:20:46;;;;;;;1.58;1.48;;;-8.40;99.90;;;;;;4956977;28;20039;-71
2022/01/02 05:23:15;;;;;;;1.55;1.45;;;-8.30;99.90;;;;;;4957021;28;20035;-70
2022/01/02 05:25:41;;;;;;;2.20;2.00;;;-8.30;99.90;;;;;;4957008;28;20026;-70
2022/01/02 05:28:07;;;;;;;1.80;1.60;;;-8.30;99.90;;;;;;4956847;28;20027;-70
2022/01/02 05:30:33;;;;;;;1.70;1.60;;;-8.30;99.90;;;;;;4956884;28;20474;-70
2022/01/02 05:32:59;;;;;;;3.50;1.60;;;-8.30;99.90;;;;;;4956833;28;20034;-70
2022/01/02 05:35:24;;;;;;;2.78;1.95;;;-8.30;99.90;;;;;;4955485;28;20027;-70
2022/01/02 05:37:50;;;;;;;2.80;1.80;;;-8.30;99.90;;;;;;4956343;28;20047;-73
2022/01/02 05:40:16;;;;;;;1.33;1.30;;;-8.20;99.90;;;;;;4956416;28;20032;-68
2022/01/02 05:42:41;;;;;;;1.70;1.55;;;-7.80;99.90;;;;;;4939094;29;20098;-68
2022/01/02 05:45:08;;;;;;;1.60;1.50;;;-7.10;99.90;;;;;;4941645;29;20496;-69
2022/01/02 05:47:33;;;;;;;2.22;1.80;;;-7.20;99.90;;;;;;4939242;28;20070;-68
2022/01/02 05:49:59;;;;;;;3.42;1.65;;;-7.40;99.90;;;;;;4947240;29;20364;-69
2022/01/02 05:52:24;;;;;;;1.55;1.45;;;-7.70;99.90;;;;;;4947215;29;20055;-69
2022/01/02 05:54:50;;;;;;;2.13;1.60;;;-7.80;99.90;;;;;;4943663;28;20032;-68
2022/01/02 05:57:16;;;;;;;1.98;1.60;;;-7.90;99.90;;;;;;4946733;29;20083;-72
2022/01/02 05:59:41;;;;;;;2.10;1.65;;;-7.90;99.90;;;;;;4947639;28;20028;-68
2022/01/02 06:02:07;;;;;;;1.92;1.75;;;-7.90;99.90;;;;;;4945493;29;20030;-69
2022/01/02 06:04:33;;;;;;;1.70;1.60;;;-8.00;99.90;;;;;;4946906;28;20046;-70
2022/01/02 06:06:59;;;;;;;3.92;1.92;;;-6.80;99.90;;;;;;4945316;28;20031;-69
2022/01/02 06:09:24;;;;;;;2.13;1.92;;;-6.70;99.90;;;;;;4946887;29;20031;-69
2022/01/02 06:11:50;;;;;;;4.82;1.67;;;-7.00;99.90;;;;;;4944481;29;20027;-69
2022/01/02 06:14:17;;;;;;;2.08;1.80;;;-7.40;99.90;;;;;;4941847;29;20640;-69
2022/01/02 06:16:42;;;;;;;2.60;1.90;;;-7.50;99.90;;;;;;4946400;29;20035;-69
2022/01/02 06:19:08;;;;;;;2.30;1.92;;;-7.70;99.90;;;;;;4940403;28;20028;-68
2022/01/02 06:21:34;;;;;;;3.38;1.60;;;-7.70;99.90;;;;;;4936700;29;20080;-68
2022/01/02 06:24:00;;;;;;;3.58;2.05;;;-7.70;99.90;;;;;;4936791;29;20463;-66
2022/01/02 06:26:25;;;;;;;2.70;2.15;;;-7.80;99.90;;;;;;4936625;29;20034;-68
2022/01/02 06:28:51;;;;;;;2.13;1.92;;;-7.80;99.90;;;;;;4936802;29;20101;-68
2022/01/02 06:31:17;;;;;;;3.30;1.90;;;-7.80;99.90;;;;;;4936658;29;20498;-68
2022/01/02 06:33:42;;;;;;;2.00;1.80;;;-7.50;99.90;;;;;;4936747;29;20464;-68
2022/01/02 06:36:08;;;;;;;5.20;1.80;;;-7.40;99.90;;;;;;4936531;29;20027;-68
2022/01/02 06:38:34;;;;;;;2.53;1.77;;;-7.40;99.90;;;;;;4936178;29;20051;-68
2022/01/02 06:41:00;;;;;;;1.90;1.65;;;-7.50;99.90;;;;;;4936179;29;20042;-68
2022/01/02 06:43:25;;;;;;;3.60;2.10;;;-7.50;99.90;;;;;;4936231;29;20034;-68
2022/01/02 06:45:51;;;;;;;3.67;2.00;;;-7.50;99.90;;;;;;4936269;29;20035;-68
2022/01/02 06:48:17;;;;;;;6.53;1.92;;;-7.50;99.90;;;;;;4936046;29;20043;-68
2022/01/02 06:50:43;;;;;;;4.30;2.00;;;-7.40;99.90;;;;;;4936140;29;20023;-68
2022/01/02 06:53:09;;;;;;;2.92;2.10;;;-7.50;99.90;;;;;;4935920;29;20491;-68
2022/01/02 06:55:35;;;;;;;3.55;1.98;;;-7.40;99.90;;;;;;4936286;29;20028;-68
2022/01/02 06:58:02;;;;;;;2.70;2.15;;;-7.40;99.90;;;;;;4935910;29;20031;-68
2022/01/02 07:00:28;;;;;;;5.38;2.17;;;-7.30;99.90;;;;;;4940741;29;20035;-68
2022/01/02 07:02:54;;;;;;;2.15;1.95;;;-7.30;99.90;;;;;;4955025;28;20406;-68
2022/01/02 07:05:19;;;;;;;3.00;1.95;;;-7.20;99.90;;;;;;4954586;28;20494;-68
2022/01/02 07:07:46;;;;;;;2.50;1.80;;;-7.10;99.90;;;;;;4954874;28;20027;-68
2022/01/02 07:10:13;;;;;;;2.78;2.15;;;-6.40;99.90;;;;;;4954836;28;20031;-68
2022/01/02 07:12:40;;;;;;;3.33;2.40;;;-4.40;99.90;;;;;;4955156;28;20110;-68
2022/01/02 07:15:07;;;;;;;3.03;2.20;;;-4.40;99.90;;;;;;4954950;28;20101;-69
2022/01/02 07:17:33;;;;;;;2.15;1.95;;;-4.90;99.90;;;;;;4954806;28;20082;-69
2022/01/02 07:19:59;;;;;;;6.35;2.13;;;-5.30;99.90;;;;;;4954555;28;20038;-68
2022/01/02 07:22:25;;;;;;;3.72;1.90;;;-5.40;99.90;;;;;;4954867;28;20027;-68
2022/01/02 07:24:51;;;;;;;2.10;1.80;;;-5.50;99.90;;;;;;4954769;28;20034;-68
2022/01/02 07:27:20;;;;;;;5.75;2.35;;;-5.60;99.90;;;;;;4954759;28;20027;-80
2022/01/02 07:29:47;;;;;;;3.22;1.95;;;-5.50;99.90;;;;;;4954842;28;20054;-69
2022/01/02 07:32:13;;;;;;;2.55;1.73;;;-4.30;99.90;;;;;;4954546;28;20049;-70
2022/01/02 07:34:39;;;;;;;2.10;1.90;;;-4.40;99.90;;;;;;4954809;28;20035;-69
2022/01/02 07:37:05;;;;;;;2.58;2.05;;;-4.60;99.90;;;;;;4954196;28;20069;-69
2022/01/02 07:39:30;;;;;;;4.70;2.20;;;-4.80;99.90;;;;;;4954600;28;20475;-69
2022/01/02 07:41:56;;;;;;;3.03;2.05;;;-4.90;99.90;;;;;;4954446;28;20118;-68
2022/01/02 07:44:22;;;;;;;4.85;2.08;;;-4.90;99.90;;;;;;4954476;28;20118;-68
2022/01/02 07:46:47;;;;;;;2.42;2.00;;;-4.90;99.90;;;;;;4954266;28;20390;-67
2022/01/02 07:49:13;;;;;;;2.55;1.90;;;-4.90;99.90;;;;;;4954106;28;20020;-68
2022/01/02 07:51:39;;;;;;;3.03;2.10;;;-4.90;99.90;;;;;;4954275;28;20039;-69
2022/01/02 07:54:05;;;;;;;3.85;2.40;;;-4.80;99.90;;;;;;4954330;28;20027;-68
2022/01/02 07:56:31;;;;;;;3.53;1.73;;;-4.80;99.90;;;;;;4954512;28;20528;-68
2022/01/02 07:58:58;;;;;;;3.17;1.80;;;-4.80;99.90;;;;;;4954070;28;20031;-67
2022/01/02 08:01:24;;;;;;;4.13;2.08;;;-4.80;99.90;;;;;;4954250;28;20047;-67
2022/01/02 08:03:51;;;;;;;4.07;2.10;;;-4.80;99.90;;;;;;4954372;28;20027;-68
2022/01/02 08:06:17;;;;;;;5.20;1.80;;;-4.70;99.90;;;;;;4953959;28;20533;-67
2022/01/02 08:08:42;;;;;;;3.08;2.30;;;-4.60;99.90;;;;;;4954304;28;20031;-67
2022/01/02 08:11:08;;;;;;;5.57;2.28;;;-4.50;99.90;;;;;;4952830;29;20023;-68
2022/01/02 08:13:34;;;;;;;5.22;2.30;;;-4.50;99.90;;;;;;4952734;28;20082;-68
2022/01/02 08:15:59;;;;;;;4.57;2.10;;;-4.40;99.90;;;;;;4953911;28;20015;-68
2022/01/02 08:18:25;;;;;;;5.40;2.35;;;-4.30;99.90;;;;;;4953180;28;20089;-68
2022/01/02 08:20:51;;;;;;;6.47;2.13;;;-4.20;99.90;;;;;;4953794;28;20039;-68
2022/01/02 08:23:17;;;;;;;3.13;1.65;;;-4.10;99.90;;;;;;4953713;28;20023;-68
2022/01/02 08:25:42;;;;;;;4.80;2.00;;;-4.10;99.90;;;;;;4954285;28;20035;-68
2022/01/02 08:28:08;;;;;;;4.28;2.25;;;-4.00;99.90;;;;;;4953703;28;20772;-68
2022/01/02 08:30:34;;;;;;;2.28;1.65;;;-3.90;99.90;;;;;;4954015;28;20526;-69
2022/01/02 08:33:00;;;;;;;3.05;1.65;;;-3.80;99.90;;;;;;4948258;28;20026;-69
2022/01/02 08:35:26;;;;;;;1.63;1.40;;;-3.80;99.90;;;;;;4953718;28;20027;-68
2022/01/02 08:37:51;;;;;;;1.98;1.52;;;-3.70;99.90;;;;;;4953527;28;20047;-68
2022/01/02 08:40:17;;;;;;;4.30;1.60;;;-3.60;99.90;;;;;;4952345;29;20046;-70
2022/01/02 08:42:43;;;;;;;3.05;1.60;;;-3.60;99.90;;;;;;4953785;28;20475;-69
2022/01/02 08:45:09;;;;;;;2.40;1.85;;;-3.50;99.90;;;;;;4953701;28;20024;-69
2022/01/02 08:47:35;;;;;;;2.38;1.60;;;-3.50;99.90;;;;;;4953819;28;20035;-69
2022/01/02 08:50:01;;;;;;;3.30;1.75;;;-3.50;99.90;;;;;;4953863;28;20028;-71
2022/01/02 08:52:27;;;;;;;1.40;1.30;;;-3.30;99.90;;;;;;4953772;28;20038;-69
2022/01/02 08:54:53;;;;;;;1.75;1.60;;;-2.10;99.90;;;;;;4951381;28;20459;-69
2022/01/02 08:57:18;;;;;;;1.23;1.00;;;-2.20;99.90;;;;;;4934453;29;20028;-68
2022/01/02 08:59:44;;;;;;;4.28;1.45;;;-2.20;99.90;;;;;;4934738;29;20094;-68
2022/01/02 09:02:10;;;;;;;2.05;1.50;;;-2.50;99.90;;;;;;4934377;29;20082;-68
2022/01/02 09:04:36;;;;;;;1.40;1.30;;;-2.60;99.90;;;;;;4933152;29;20031;-68
2022/01/02 09:07:02;;;;;;;1.92;1.33;;;-2.80;99.90;;;;;;4934723;29;20035;-68
2022/01/02 09:09:28;;;;;;;1.88;1.40;;;-2.80;99.90;;;;;;4934212;29;20404;-68
2022/01/02 09:11:54;;;;;;;2.15;1.50;;;-2.90;99.90;;;;;;4934677;29;20035;-68
2022/01/02 09:14:19;;;;;;;2.00;1.58;;;-2.90;99.90;;;;;;4934473;29;20438;-68
2022/01/02 09:16:45;;;;;;;2.92;1.48;;;-2.90;99.90;;;;;;4934362;29;20475;-68
2022/01/02 09:19:13;;;;;;;1.30;1.15;;;-2.90;99.90;;;;;;4934105;29;20387;-68
2022/01/02 09:21:39;;;;;;;1.90;1.40;;;-2.90;99.90;;;;;;4934241;29;20123;-68
2022/01/02 09:24:05;;;;;;;1.67;1.38;;;-2.90;99.90;;;;;;4934269;29;20023;-68
2022/01/02 09:26:31;;;;;;;1.40;1.30;;;-2.90;99.90;;;;;;4934237;29;20071;-68
2022/01/02 09:28:57;;;;;;;1.50;1.40;;;-2.90;99.90;;;;;;4935409;29;20026;-68
2022/01/02 09:31:23;;;;;;;1.63;1.35;;;-2.80;99.90;;;;;;4937499;29;20555;-68
2022/01/02 09:33:49;;;;;;;1.58;1.48;;;-2.90;99.90;;;;;;4937569;29;20038;-68
2022/01/02 09:36:15;;;;;;;1.88;1.15;;;-2.80;99.90;;;;;;4937389;29;20030;-68
2022/01/02 09:38:42;;;;;;;2.13;1.35;;;-2.80;99.90;;;;;;4937369;29;20039;-68
2022/01/02 09:41:08;;;;;;;1.40;1.30;;;-2.80;99.90;;;;;;4937287;29;20027;-68
2022/01/02 09:43:34;;;;;;;5.90;1.55;;;-2.80;99.90;;;;;;4937353;29;20031;-68
2022/01/02 09:46:00;;;;;;;1.92;1.40;;;-2.80;99.90;;;;;;4937608;29;20115;-69
2022/01/02 09:48:27;;;;;;;3.58;1.23;;;-2.80;99.90;;;;;;4937187;29;20031;-68
2022/01/02 09:50:53;;;;;;;1.95;1.25;;;-2.80;99.90;;;;;;4937344;29;20071;-68
2022/01/02 09:53:19;;;;;;;3.13;1.40;;;-2.70;99.90;;;;;;4937074;29;20028;-68
2022/01/02 09:55:44;;;;;;;2.88;1.20;;;-2.70;99.90;;;;;;4937123;29;20031;-68
2022/01/02 09:58:12;;;;;;;2.72;1.40;;;-2.70;99.90;;;;;;4936902;29;20045;-68
2022/01/02 10:00:39;;;;;;;1.60;1.35;;;-2.70;99.90;;;;;;4937196;29;20126;-68
2022/01/02 10:03:08;;;;;;;4.30;1.30;;;-2.70;99.90;;;;;;4941428;29;20066;-68
2022/01/02 10:06:00;;;;;;;1.42;1.33;;;-2.70;99.90;;;;;;4955978;28;20513;-68
2022/01/02 10:08:30;;;;;;;1.80;1.45;;;-2.60;99.90;;;;;;4953957;28;20039;-68
2022/01/02 10:11:05;;;;;;;3.25;1.55;;;-2.60;99.90;;;;;;4956205;28;20118;-68
2022/01/02 10:13:52;;;;;;;2.42;1.27;;;-2.60;99.90;;;;;;4953331;28;20106;-68
2022/01/02 10:16:24;;;;;;;1.63;1.20;;;-2.50;99.90;;;;;;4955960;28;20054;-68
2022/01/02 10:18:52;;;;;;;4.18;1.42;;;-2.50;99.90;;;;;;4956003;29;20090;-69
2022/01/02 10:21:37;;;;;;;2.03;1.20;;;-2.50;99.90;;;;;;4955763;28;20031;-69
2022/01/02 10:24:33;;;;;;;4.30;1.55;;;-2.50;99.90;;;;;;4955838;28;20099;-68
2022/01/02 10:27:05;;;;;;;2.53;1.40;;;-2.50;99.90;;;;;;4955099;29;20499;-68
2022/01/02 10:29:56;;;;;;;2.65;1.25;;;-2.50;99.90;;;;;;4955518;28;20107;-71
2022/01/02 10:32:21;;;;;;;;;;;-2.40;99.90;;;;;;4936929;29;20039;-70
2022/01/02 10:34:48;;;;;;;5.15;1.70;;;-2.40;99.90;;;;;;4948525;29;20285;-73
2022/01/02 10:37:34;;;;;;;1.98;1.30;;;-2.20;99.90;;;;;;4952551;28;20201;-72
2022/01/02 10:39:59;;;;;;;1.40;1.30;;;-2.20;99.90;;;;;;4954574;28;20049;-72
2022/01/02 10:42:25;;;;;;;2.28;1.35;;;-1.90;99.90;;;;;;4955492;28;20126;-70
2022/01/02 10:44:51;;;;;;;1.80;1.40;;;-2.00;99.90;;;;;;4955687;28;20046;-70
2022/01/02 10:47:18;;;;;;;3.85;1.42;;;-2.10;99.90;;;;;;4954068;28;20550;-71
2022/01/02 10:50:03;;;;;;;2.60;1.60;;;-1.90;99.90;;;;;;4955292;28;20038;-71
2022/01/02 10:52:38;;;;;;;3.95;1.52;;;-1.90;99.90;;;;;;4955261;28;20495;-70
2022/01/02 10:55:16;;;;;;;1.75;1.52;;;-2.00;99.90;;;;;;4955487;28;20031;-71
2022/01/02 10:57:42;;;;;;;5.53;1.65;;;-2.00;99.90;;;;;;4944362;29;20391;-71
2022/01/02 11:00:10;;;;;;;1.95;1.42;;;-2.10;99.90;;;;;;4953322;28;20035;-71
2022/01/02 11:02:36;;;;;;;2.80;1.75;;;-2.10;99.90;;;;;;4935750;29;20024;-71
2022/01/02 11:05:03;;;;;;;3.25;1.67;;;-2.20;99.90;;;;;;4947040;29;20497;-73
2022/01/02 11:07:38;;;;;;;2.05;1.52;;;-2.10;99.90;;;;;;4943607;29;20031;-70
2022/01/02 11:10:04;;;;;;;1.70;1.60;;;-2.10;99.90;;;;;;4944388;28;20130;-70
2022/01/02 11:12:32;;;;;;;2.45;1.55;;;-2.10;99.90;;;;;;4945830;28;20531;-70
2022/01/02 11:14:58;;;;;;;1.83;1.50;;;-2.10;99.90;;;;;;4935403;29;20495;-70
2022/01/02 11:17:24;;;;;;;2.13;1.55;;;-2.10;99.90;;;;;;4935292;29;20529;-70
2022/01/02 11:19:50;;;;;;;1.92;1.42;;;-2.10;99.90;;;;;;4935511;29;20063;-70
2022/01/02 11:22:33;;;;;;;1.58;1.48;;;-2.10;99.90;;;;;;4935627;29;20038;-74
2022/01/02 11:25:07;;;;;;;2.67;1.60;;;-2.10;99.90;;;;;;4935829;29;20028;-73
2022/01/02 11:28:03;;;;;;;3.55;1.52;;;-2.10;99.90;;;;;;4935482;29;20036;-76
2022/01/02 11:30:35;;;;;;;1.52;1.40;;;-2.10;99.90;;;;;;4935430;29;20022;-73
2022/01/02 11:33:01;;;;;;;3.28;1.42;;;-2.10;99.90;;;;;;4942785;29;20028;-73
2022/01/02 11:35:33;;;;;;;1.75;1.40;;;-2.10;99.90;;;;;;4949174;29;20023;-73
2022/01/02 11:38:03;;;;;;;5.05;1.42;;;-1.70;99.90;;;;;;4953257;28;20082;-74
2022/01/02 11:40:51;;;;;;;1.60;1.30;;;-1.10;99.90;;;;;;4953151;28;20039;-73
2022/01/02 11:43:50;;;;;;;3.28;1.63;;;-1.20;99.90;;;;;;4954163;28;20431;-71
2022/01/02 11:46:33;;;;;;;2.28;1.42;;;-0.60;99.90;;;;;;4953875;29;20065;-71
2022/01/02 11:49:05;;;;;;;2.25;1.70;;;-0.90;99.90;;;;;;4954575;28;20038;-71
2022/01/02 11:52:04;;;;;;;1.17;1.13;;;-1.30;99.90;;;;;;4953961;28;20027;-71
2022/01/02 11:54:35;;;;;;;2.72;1.40;;;-1.40;99.90;;;;;;4953839;28;20031;-70
2022/01/02 11:57:25;;;;;;;2.00;1.50;;;-1.40;99.90;;;;;;4954012;28;20015;-70
2022/01/02 11:59:52;;;;;;;2.85;1.42;;;-1.60;99.90;;;;;;4953878;28;20074;-71
2022/01/02 12:02:24;;;;;;;3.08;1.45;;;-1.70;99.90;;;;;;4953955;28;20427;-71
2022/01/02 12:04:59;;;;;;;2.05;1.60;;;-1.80;99.90;;;;;;4952748;28;20031;-71
2022/01/02 12:07:34;;;;;;;1.73;1.23;;;-1.80;99.90;;;;;;4954177;28;20051;-71
2022/01/02 12:10:20;;;;;;;2.28;1.30;;;-1.90;99.90;;;;;;4954051;28;20027;-71
2022/01/02 12:13:06;;;;;;;1.30;1.20;;;-1.90;99.90;;;;;;4952755;28;20558;-71
2022/01/02 12:15:34;;;;;;;1.88;1.20;;;-2.00;99.90;;;;;;4953769;28;20031;-71
2022/01/02 12:18:26;;;;;;;2.55;1.30;;;-2.00;99.90;;;;;;4953895;28;20082;-71
2022/01/02 12:20:52;;;;;;;1.95;1.40;;;-2.00;99.90;;;;;;4952567;28;20122;-70
2022/01/02 12:23:33;;;;;;;1.73;1.60;;;-2.00;99.90;;;;;;4953703;28;20103;-71
2022/01/02 12:26:00;;;;;;;1.50;1.40;;;-2.00;99.90;;;;;;4952515;28;20031;-71
2022/01/02 12:28:28;;;;;;;1.70;1.38;;;-2.00;99.90;;;;;;4953676;28;20046;-71
2022/01/02 12:30:54;;;;;;;1.95;1.42;;;-2.10;99.90;;;;;;4953785;28;20502;-71
2022/01/02 12:33:28;;;;;;;2.63;1.70;;;-2.00;99.90;;;;;;4953728;28;20019;-70
2022/01/02 12:35:54;;;;;;;3.83;1.60;;;-2.00;99.90;;;;;;4953735;28;20035;-70
2022/01/02 12:38:20;;;;;;;3.33;1.50;;;-2.10;99.90;;;;;;4953472;28;20522;-71
2022/01/02 12:40:49;;;;;;;1.30;1.20;;;-2.10;99.90;;;;;;4953605;28;20198;-70
2022/01/02 12:43:22;;;;;;;2.50;1.33;;;-2.10;99.90;;;;;;4952308;28;20039;-71
2022/01/02 12:45:53;;;;;;;4.45;1.75;;;-2.10;99.90;;;;;;4952386;28;20518;-71
2022/01/02 12:48:31;;;;;;;3.28;1.27;;;-2.10;99.90;;;;;;4953602;28;20424;-70
2022/01/02 12:51:11;;;;;;;2.53;1.40;;;-2.10;99.90;;;;;;4953525;28;20127;-70
2022/01/02 12:53:37;;;;;;;2.47;1.50;;;-2.00;99.90;;;;;;4953752;28;20098;-70
2022/01/02 12:56:03;;;;;;;1.40;1.30;;;-2.10;99.90;;;;;;4953320;28;20178;-70
2022/01/02 12:58:31;;;;;;;2.17;1.75;;;-2.00;99.90;;;;;;4953453;28;20019;-70
2022/01/02 13:01:06;;;;;;;2.78;1.48;;;-2.00;99.90;;;;;;4953692;28;20047;-71
2022/01/02 13:03:31;;;;;;;1.30;1.20;;;-2.00;99.90;;;;;;4954033;28;20483;-70
2022/01/02 13:05:58;;;;;;;1.88;1.25;;;-2.00;99.90;;;;;;4957675;28;20102;-70
2022/01/02 13:08:26;;;;;;;2.50;1.70;;;-2.00;99.90;;;;;;4957113;28;20031;-70
2022/01/02 13:10:53;;;;;;;5.22;1.73;;;-2.00;99.90;;;;;;4955771;28;20337;-71
2022/01/02 13:13:30;;;;;;;3.13;1.60;;;-2.00;99.90;;;;;;4957046;28;20122;-71
2022/01/02 13:16:03;;;;;;;2.10;1.45;;;-2.00;99.90;;;;;;4956850;28;20031;-70
2022/01/02 13:18:29;;;;;;;2.28;1.50;;;-1.90;99.90;;;;;;4956934;28;20023;-70
2022/01/02 13:20:55;;;;;;;1.52;1.42;;;-2.00;99.90;;;;;;4955465;28;20517;-71
2022/01/02 13:23:21;;;;;;;1.95;1.60;;;-1.90;99.90;;;;;;4956759;28;20027;-70
2022/01/02 13:25:47;;;;;;;1.40;1.30;;;-1.90;99.90;;;;;;4955496;28;20032;-70
2022/01/02 13:28:16;;;;;;;4.00;1.60;;;-1.90;99.90;;;;;;4957146;28;20027;-70
2022/01/02 13:30:58;;;;;;;2.72;1.60;;;-1.90;99.90;;;;;;4956648;28;20027;-71
2022/01/02 13:33:31;;;;;;;1.75;1.27;;;-1.90;99.90;;;;;;4955367;28;20037;-71
2022/01/02 13:36:10;;;;;;;3.50;1.20;;;-1.90;99.90;;;;;;4956502;28;20102;-71
2022/01/02 13:38:55;;;;;;;1.98;1.40;;;-1.90;99.90;;;;;;4956469;28;20067;-71
2022/01/02 13:41:23;;;;;;;2.25;1.38;;;-1.90;99.90;;;;;;4956405;28;20039;-70
2022/01/02 13:43:49;;;;;;;1.50;1.35;;;-1.90;99.90;;;;;;4956829;28;20019;-70
2022/01/02 13:46:15;;;;;;;2.70;1.58;;;-1.90;99.90;;;;;;4956425;28;20028;-71
2022/01/02 13:48:42;;;;;;;3.50;1.50;;;-1.90;99.90;;;;;;4956310;28;20024;-70
2022/01/02 13:51:19;;;;;;;1.85;1.45;;;-1.90;99.90;;;;;;4956327;28;20598;-71
2022/01/02 13:53:44;;;;;;;3.85;1.80;;;-1.90;99.90;;;;;;4956373;28;20035;-71
2022/01/02 13:56:16;;;;;;;1.60;1.42;;;-1.90;99.90;;;;;;4955057;29;20027;-71